<?xml version="1.0" encoding="utf-8"?>
<gpx xmlns:xsi="http://www.w3.org/2001/XMLSchema-instance" xmlns:xsd="http://www.w3.org/2001/XMLSchema" version="1.1" creator="Shapelink.com" xmlns="http://www.topografix.com/GPX/1/1" xmlns:gpxtpx="http://www.garmin.com/xmlschemas/TrackPointExtension/v1">
  <metadata>
    <name>Övrigt 1.76 km, 2019-01-29</name>
    <desc></desc>
    <author><name>Marian Moron</name></author> 
    <time>2019-01-29T20:55:03Z</time>
  </metadata>
  <trk>
    <name>Övrigt 1.76 km, 2019-01-29</name>
    <trkseg>
      <trkpt lat="51.229765858755" lon="4.457893063164">
        <ele>6.2</ele>
        <time>2019-01-29T20:55:03Z</time>
      </trkpt>
      <trkpt lat="51.229765104384" lon="4.457909659326">
        <ele>9</ele>
        <time>2019-01-29T20:55:06Z</time>
      </trkpt>
      <trkpt lat="51.229928467615" lon="4.458316600571">
        <ele>0</ele>
        <time>2019-01-29T20:55:52Z</time>
      </trkpt>
      <trkpt lat="51.229999797584" lon="4.458523465863">
        <ele>0</ele>
        <time>2019-01-29T20:56:09Z</time>
      </trkpt>
      <trkpt lat="51.230130806681" lon="4.458773665578">
        <ele>0</ele>
        <time>2019-01-29T20:56:39Z</time>
      </trkpt>
      <trkpt lat="51.230234909879" lon="4.458719267047">
        <ele>0</ele>
        <time>2019-01-29T20:57:06Z</time>
      </trkpt>
      <trkpt lat="51.230640845296" lon="4.458631760011">
        <ele>1</ele>
        <time>2019-01-29T20:57:50Z</time>
      </trkpt>
      <trkpt lat="51.231088522575" lon="4.458493374842">
        <ele>7.8</ele>
        <time>2019-01-29T20:58:25Z</time>
      </trkpt>
      <trkpt lat="51.231119367967" lon="4.458448364039">
        <ele>9.8</ele>
        <time>2019-01-29T20:58:31Z</time>
      </trkpt>
      <trkpt lat="51.231342577964" lon="4.458336298036">
        <ele>8.2</ele>
        <time>2019-01-29T20:58:52Z</time>
      </trkpt>
      <trkpt lat="51.231477610373" lon="4.458371837292">
        <ele>8.2</ele>
        <time>2019-01-29T20:59:12Z</time>
      </trkpt>
      <trkpt lat="51.231553969482" lon="4.458445430374">
        <ele>8.2</ele>
        <time>2019-01-29T20:59:23Z</time>
      </trkpt>
      <trkpt lat="51.231732587771" lon="4.459110785596">
        <ele>6.2</ele>
        <time>2019-01-29T20:59:54Z</time>
      </trkpt>
      <trkpt lat="51.231742897508" lon="4.459148252689">
        <ele>5.8</ele>
        <time>2019-01-29T20:59:56Z</time>
      </trkpt>
      <trkpt lat="51.231775754556" lon="4.459323099123">
        <ele>3.4</ele>
        <time>2019-01-29T21:00:10Z</time>
      </trkpt>
      <trkpt lat="51.231753877797" lon="4.459524683818">
        <ele>7.6</ele>
        <time>2019-01-29T21:00:52Z</time>
      </trkpt>
      <trkpt lat="51.231706436243" lon="4.459779912673">
        <ele>9.8</ele>
        <time>2019-01-29T21:01:05Z</time>
      </trkpt>
      <trkpt lat="51.231783130628" lon="4.460022317221">
        <ele>10</ele>
        <time>2019-01-29T21:01:22Z</time>
      </trkpt>
      <trkpt lat="51.231923443634" lon="4.460597483199">
        <ele>3.6</ele>
        <time>2019-01-29T21:01:50Z</time>
      </trkpt>
      <trkpt lat="51.23196065927" lon="4.461104085235">
        <ele>7.8</ele>
        <time>2019-01-29T21:02:35Z</time>
      </trkpt>
      <trkpt lat="51.232016650362" lon="4.461381274668">
        <ele>5.4</ele>
        <time>2019-01-29T21:02:52Z</time>
      </trkpt>
      <trkpt lat="51.23162789784" lon="4.46162166756">
        <ele>8</ele>
        <time>2019-01-29T21:03:29Z</time>
      </trkpt>
      <trkpt lat="51.231590095471" lon="4.461600126077">
        <ele>6.6</ele>
        <time>2019-01-29T21:03:32Z</time>
      </trkpt>
      <trkpt lat="51.23153402056" lon="4.461616135506">
        <ele>5.8</ele>
        <time>2019-01-29T21:03:45Z</time>
      </trkpt>
      <trkpt lat="51.231325562707" lon="4.461801794591">
        <ele>5</ele>
        <time>2019-01-29T21:04:07Z</time>
      </trkpt>
      <trkpt lat="51.231352468606" lon="4.461993404825">
        <ele>3.2</ele>
        <time>2019-01-29T21:04:24Z</time>
      </trkpt>
      <trkpt lat="51.231418434159" lon="4.462720450831">
        <ele>7.6</ele>
        <time>2019-01-29T21:05:00Z</time>
      </trkpt>
      <trkpt lat="51.231164546408" lon="4.463161757866">
        <ele>0</ele>
        <time>2019-01-29T21:05:37Z</time>
      </trkpt>
      <trkpt lat="51.23114761497" lon="4.46322344865">
        <ele>0.2</ele>
        <time>2019-01-29T21:05:41Z</time>
      </trkpt>
      <trkpt lat="51.230746792512" lon="4.463298466655">
        <ele>28</ele>
        <time>2019-01-29T21:06:16Z</time>
      </trkpt>
      <trkpt lat="51.230414617815" lon="4.463333586816">
        <ele>28</ele>
        <time>2019-01-29T21:06:55Z</time>
      </trkpt>
      <trkpt lat="51.230376899265" lon="4.463531734932">
        <ele>10.4</ele>
        <time>2019-01-29T21:07:07Z</time>
      </trkpt>
      <trkpt lat="51.230367679175" lon="4.46384873839">
        <ele>5.2</ele>
        <time>2019-01-29T21:07:21Z</time>
      </trkpt>
      <trkpt lat="51.230198364795" lon="4.463999109676">
        <ele>4.4</ele>
        <time>2019-01-29T21:07:45Z</time>
      </trkpt>
      <trkpt lat="51.229800056907" lon="4.464221481483">
        <ele>7.4</ele>
        <time>2019-01-29T21:08:17Z</time>
      </trkpt>
      <trkpt lat="51.229518341248" lon="4.464189965539">
        <ele>35.6</ele>
        <time>2019-01-29T21:08:44Z</time>
      </trkpt>
      <trkpt lat="51.2292088815" lon="4.464287530855">
        <ele>31.6</ele>
        <time>2019-01-29T21:09:12Z</time>
      </trkpt>
      <trkpt lat="51.228994556317" lon="4.464153420455">
        <ele>26.4</ele>
        <time>2019-01-29T21:09:35Z</time>
      </trkpt>
      <trkpt lat="51.228966141676" lon="4.464157024672">
        <ele>25.6</ele>
        <time>2019-01-29T21:09:39Z</time>
      </trkpt>
      <trkpt lat="51.228839407348" lon="4.464276634385">
        <ele>5.4</ele>
        <time>2019-01-29T21:10:02Z</time>
      </trkpt>
      <trkpt lat="51.22878894831" lon="4.46430471375">
        <ele>3.8</ele>
        <time>2019-01-29T21:10:08Z</time>
      </trkpt>
      <trkpt lat="51.228573701118" lon="4.464244866984">
        <ele>0</ele>
        <time>2019-01-29T21:10:50Z</time>
      </trkpt>
      <trkpt lat="51.228442356745" lon="4.463562245048">
        <ele>1.2</ele>
        <time>2019-01-29T21:11:32Z</time>
      </trkpt>
      <trkpt lat="51.22843607032" lon="4.463537266986">
        <ele>0.8</ele>
        <time>2019-01-29T21:11:34Z</time>
      </trkpt>
      <trkpt lat="51.228399022322" lon="4.463515222589">
        <ele>0</ele>
        <time>2019-01-29T21:11:39Z</time>
      </trkpt>
      <trkpt lat="51.228235659091" lon="4.463349260969">
        <ele>3.6</ele>
        <time>2019-01-29T21:12:12Z</time>
      </trkpt>
      <trkpt lat="51.2278342499" lon="4.463001579757">
        <ele>15.6</ele>
        <time>2019-01-29T21:12:52Z</time>
      </trkpt>
      <trkpt lat="51.227819581575" lon="4.462275707217">
        <ele>7.4</ele>
        <time>2019-01-29T21:13:34Z</time>
      </trkpt>
      <trkpt lat="51.227777504437" lon="4.461623008664">
        <ele>8.2</ele>
        <time>2019-01-29T21:14:08Z</time>
      </trkpt>
      <trkpt lat="51.227787981812" lon="4.461456879406">
        <ele>5.8</ele>
        <time>2019-01-29T21:14:18Z</time>
      </trkpt>
      <trkpt lat="51.227771134193" lon="4.461352860027">
        <ele>5.8</ele>
        <time>2019-01-29T21:14:24Z</time>
      </trkpt>
      <trkpt lat="51.227755795316" lon="4.460947846619">
        <ele>3.8</ele>
        <time>2019-01-29T21:14:47Z</time>
      </trkpt>
      <trkpt lat="51.227774570772" lon="4.460886910206">
        <ele>5</ele>
        <time>2019-01-29T21:14:50Z</time>
      </trkpt>
      <trkpt lat="51.227877249047" lon="4.460456332003">
        <ele>16</ele>
        <time>2019-01-29T21:15:14Z</time>
      </trkpt>
      <trkpt lat="51.227959810762" lon="4.460467647568">
        <ele>17.2</ele>
        <time>2019-01-29T21:15:23Z</time>
      </trkpt>
      <trkpt lat="51.228213363237" lon="4.460153577775">
        <ele>22.8</ele>
        <time>2019-01-29T21:16:22Z</time>
      </trkpt>
      <trkpt lat="51.228353173329" lon="4.459680168063">
        <ele>8</ele>
        <time>2019-01-29T21:16:50Z</time>
      </trkpt>
      <trkpt lat="51.228494156887" lon="4.459334330869">
        <ele>0.6</ele>
        <time>2019-01-29T21:17:42Z</time>
      </trkpt>
      <trkpt lat="51.228491642317" lon="4.459289236247">
        <ele>0</ele>
        <time>2019-01-29T21:17:45Z</time>
      </trkpt>
      <trkpt lat="51.228494911258" lon="4.459124615731">
        <ele>1.6</ele>
        <time>2019-01-29T21:17:53Z</time>
      </trkpt>
      <trkpt lat="51.22847378887" lon="4.458418524475">
        <ele>0</ele>
        <time>2019-01-29T21:18:35Z</time>
      </trkpt>
      <trkpt lat="51.228536820758" lon="4.45823286539">
        <ele>1.2</ele>
        <time>2019-01-29T21:18:47Z</time>
      </trkpt>
      <trkpt lat="51.228990197729" lon="4.458135383893">
        <ele>22.4</ele>
        <time>2019-01-29T21:19:27Z</time>
      </trkpt>
      <trkpt lat="51.229434941343" lon="4.458014265438">
        <ele>17.6</ele>
        <time>2019-01-29T21:20:04Z</time>
      </trkpt>
      <trkpt lat="51.229856886189" lon="4.457807735422">
        <ele>17.2</ele>
        <time>2019-01-29T21:20:45Z</time>
      </trkpt>
      <trkpt lat="51.229829309738" lon="4.457942097279">
        <ele>18</ele>
        <time>2019-01-29T21:21:00Z</time>
      </trkpt>
      <trkpt lat="51.229771642266" lon="4.457961962382">
        <ele>14.6</ele>
        <time>2019-01-29T21:21:05Z</time>
      </trkpt>
      <trkpt lat="51.229758398864" lon="4.457968667902">
        <ele>14.4</ele>
        <time>2019-01-29T21:21:06Z</time>
      </trkpt>
      <trkpt lat="51.229710370577" lon="4.457993310688">
        <ele>13.2</ele>
        <time>2019-01-29T21:21:10Z</time>
      </trkpt>
      <trkpt lat="51.229677513529" lon="4.458012169963">
        <ele>11.8</ele>
        <time>2019-01-29T21:21:14Z</time>
      </trkpt>
      <trkpt lat="51.229678016443" lon="4.458018624026">
        <ele>11.4</ele>
        <time>2019-01-29T21:21:15Z</time>
      </trkpt>
    </trkseg>
  </trk>
</gpx>